sensor_id;sensor_type;location;lat;lon;timestamp;temperature;humidity
50907;DHT22;36882;27.680;85.304;2022-09-27T00:01:47;22.90;99.00
50907;DHT22;36882;27.680;85.304;2022-09-27T00:04:18;22.90;99.30
50907;DHT22;36882;27.680;85.304;2022-09-27T00:06:48;22.90;99.40
50907;DHT22;36882;27.680;85.304;2022-09-27T00:09:19;23.00;99.40
50907;DHT22;36882;27.680;85.304;2022-09-27T00:11:49;23.00;99.40
50907;DHT22;36882;27.680;85.304;2022-09-27T00:14:20;23.00;99.30
50907;DHT22;36882;27.680;85.304;2022-09-27T00:16:50;23.10;99.20
50907;DHT22;36882;27.680;85.304;2022-09-27T00:19:21;23.10;99.40
50907;DHT22;36882;27.680;85.304;2022-09-27T00:21:52;23.00;99.20
50907;DHT22;36882;27.680;85.304;2022-09-27T00:24:23;23.00;99.30
50907;DHT22;36882;27.680;85.304;2022-09-27T00:26:53;23.00;99.30
50907;DHT22;36882;27.680;85.304;2022-09-27T00:29:24;23.00;99.50
50907;DHT22;36882;27.680;85.304;2022-09-27T00:31:54;23.00;99.70
50907;DHT22;36882;27.680;85.304;2022-09-27T00:34:25;23.00;99.80
50907;DHT22;36882;27.680;85.304;2022-09-27T00:36:56;23.00;99.70
50907;DHT22;36882;27.680;85.304;2022-09-27T00:39:26;22.90;99.50
50907;DHT22;36882;27.680;85.304;2022-09-27T00:41:57;23.00;99.50
50907;DHT22;36882;27.680;85.304;2022-09-27T00:44:54;23.00;99.40
50907;DHT22;36882;27.680;85.304;2022-09-27T00:47:35;23.00;99.30
50907;DHT22;36882;27.680;85.304;2022-09-27T00:50:18;23.10;99.30
50907;DHT22;36882;27.680;85.304;2022-09-27T00:53:13;23.10;99.20
50907;DHT22;36882;27.680;85.304;2022-09-27T00:55:57;23.00;99.10
50907;DHT22;36882;27.680;85.304;2022-09-27T00:58:31;23.00;99.10
50907;DHT22;36882;27.680;85.304;2022-09-27T01:01:06;23.10;99.10
50907;DHT22;36882;27.680;85.304;2022-09-27T01:03:58;23.10;99.10
50907;DHT22;36882;27.680;85.304;2022-09-27T01:06:30;23.10;99.00
50907;DHT22;36882;27.680;85.304;2022-09-27T01:09:01;23.20;98.80
50907;DHT22;36882;27.680;85.304;2022-09-27T01:11:47;23.30;98.90
50907;DHT22;36882;27.680;85.304;2022-09-27T01:17:39;23.40;98.70
50907;DHT22;36882;27.680;85.304;2022-09-27T01:20:44;23.50;98.40
50907;DHT22;36882;27.680;85.304;2022-09-27T01:23:59;23.50;98.40
50907;DHT22;36882;27.680;85.304;2022-09-27T01:29:52;23.50;98.50
50907;DHT22;36882;27.680;85.304;2022-09-27T01:32:35;23.50;98.20
50907;DHT22;36882;27.680;85.304;2022-09-27T01:35:24;23.50;98.30
50907;DHT22;36882;27.680;85.304;2022-09-27T01:38:15;23.40;98.20
50907;DHT22;36882;27.680;85.304;2022-09-27T01:40:58;23.50;98.40
50907;DHT22;36882;27.680;85.304;2022-09-27T01:43:54;23.50;98.20
50907;DHT22;36882;27.680;85.304;2022-09-27T01:46:36;23.60;98.00
50907;DHT22;36882;27.680;85.304;2022-09-27T01:49:15;23.70;98.00
50907;DHT22;36882;27.680;85.304;2022-09-27T01:51:54;23.80;97.90
50907;DHT22;36882;27.680;85.304;2022-09-27T01:54:36;23.80;98.00
50907;DHT22;36882;27.680;85.304;2022-09-27T01:57:10;23.90;98.00
50907;DHT22;36882;27.680;85.304;2022-09-27T01:59:49;23.90;97.80
50907;DHT22;36882;27.680;85.304;2022-09-27T02:02:25;24.00;97.70
50907;DHT22;36882;27.680;85.304;2022-09-27T02:05:00;24.10;97.60
50907;DHT22;36882;27.680;85.304;2022-09-27T02:07:39;24.10;97.50
50907;DHT22;36882;27.680;85.304;2022-09-27T02:10:16;24.20;97.60
50907;DHT22;36882;27.680;85.304;2022-09-27T02:13:02;24.20;97.70
50907;DHT22;36882;27.680;85.304;2022-09-27T02:15:47;24.30;97.50
50907;DHT22;36882;27.680;85.304;2022-09-27T02:18:27;24.40;97.30
50907;DHT22;36882;27.680;85.304;2022-09-27T02:21:02;24.40;97.40
50907;DHT22;36882;27.680;85.304;2022-09-27T02:23:46;24.50;97.50
50907;DHT22;36882;27.680;85.304;2022-09-27T02:26:23;24.60;97.30
50907;DHT22;36882;27.680;85.304;2022-09-27T02:29:08;24.60;97.10
50907;DHT22;36882;27.680;85.304;2022-09-27T02:31:40;24.70;97.20
50907;DHT22;36882;27.680;85.304;2022-09-27T02:34:21;24.70;97.30
50907;DHT22;36882;27.680;85.304;2022-09-27T02:36:52;24.70;97.00
50907;DHT22;36882;27.680;85.304;2022-09-27T02:39:23;24.80;96.70
50907;DHT22;36882;27.680;85.304;2022-09-27T02:41:54;24.70;97.00
50907;DHT22;36882;27.680;85.304;2022-09-27T02:44:27;24.80;96.70
50907;DHT22;36882;27.680;85.304;2022-09-27T02:47:14;24.80;96.80
50907;DHT22;36882;27.680;85.304;2022-09-27T02:53:03;25.00;96.10
50907;DHT22;36882;27.680;85.304;2022-09-27T02:55:50;25.00;95.50
50907;DHT22;36882;27.680;85.304;2022-09-27T03:02:00;25.10;96.00
50907;DHT22;36882;27.680;85.304;2022-09-27T03:05:00;25.20;96.00
50907;DHT22;36882;27.680;85.304;2022-09-27T03:07:32;25.30;95.70
50907;DHT22;36882;27.680;85.304;2022-09-27T03:10:04;25.30;95.20
50907;DHT22;36882;27.680;85.304;2022-09-27T03:12:35;25.30;95.00
50907;DHT22;36882;27.680;85.304;2022-09-27T03:15:05;25.50;95.50
50907;DHT22;36882;27.680;85.304;2022-09-27T03:17:36;25.60;94.60
50907;DHT22;36882;27.680;85.304;2022-09-27T03:20:06;25.70;94.30
50907;DHT22;36882;27.680;85.304;2022-09-27T03:22:37;25.90;94.20
50907;DHT22;36882;27.680;85.304;2022-09-27T03:25:10;25.90;93.50
50907;DHT22;36882;27.680;85.304;2022-09-27T03:27:40;25.80;94.20
50907;DHT22;36882;27.680;85.304;2022-09-27T03:30:12;26.00;94.80
50907;DHT22;36882;27.680;85.304;2022-09-27T03:32:44;26.30;94.20
50907;DHT22;36882;27.680;85.304;2022-09-27T03:35:15;26.40;93.90
50907;DHT22;36882;27.680;85.304;2022-09-27T03:37:47;26.50;92.20
50907;DHT22;36882;27.680;85.304;2022-09-27T03:40:18;26.70;92.60
50907;DHT22;36882;27.680;85.304;2022-09-27T03:42:48;26.80;92.60
50907;DHT22;36882;27.680;85.304;2022-09-27T03:45:19;26.80;92.70
50907;DHT22;36882;27.680;85.304;2022-09-27T03:47:49;26.90;93.00
50907;DHT22;36882;27.680;85.304;2022-09-27T03:50:19;26.90;92.30
50907;DHT22;36882;27.680;85.304;2022-09-27T03:52:49;27.00;92.00
50907;DHT22;36882;27.680;85.304;2022-09-27T03:55:20;27.00;92.30
50907;DHT22;36882;27.680;85.304;2022-09-27T03:57:50;27.00;91.70
50907;DHT22;36882;27.680;85.304;2022-09-27T04:00:21;26.90;91.70
50907;DHT22;36882;27.680;85.304;2022-09-27T04:02:51;27.00;91.40
50907;DHT22;36882;27.680;85.304;2022-09-27T04:05:22;26.90;92.70
50907;DHT22;36882;27.680;85.304;2022-09-27T04:07:52;27.00;92.60
50907;DHT22;36882;27.680;85.304;2022-09-27T04:10:23;27.20;91.70
50907;DHT22;36882;27.680;85.304;2022-09-27T04:15:48;27.10;91.60
50907;DHT22;36882;27.680;85.304;2022-09-27T04:18:19;26.80;91.90
50907;DHT22;36882;27.680;85.304;2022-09-27T04:20:49;27.00;92.10
50907;DHT22;36882;27.680;85.304;2022-09-27T04:23:19;27.10;91.50
50907;DHT22;36882;27.680;85.304;2022-09-27T04:25:55;27.20;91.50
50907;DHT22;36882;27.680;85.304;2022-09-27T04:28:25;27.40;91.90
50907;DHT22;36882;27.680;85.304;2022-09-27T04:30:58;27.40;91.00
50907;DHT22;36882;27.680;85.304;2022-09-27T04:33:28;27.20;91.80
50907;DHT22;36882;27.680;85.304;2022-09-27T04:35:58;27.20;92.20
50907;DHT22;36882;27.680;85.304;2022-09-27T04:38:45;27.30;91.00
50907;DHT22;36882;27.680;85.304;2022-09-27T04:41:16;27.40;90.90
50907;DHT22;36882;27.680;85.304;2022-09-27T04:43:47;27.50;91.10
50907;DHT22;36882;27.680;85.304;2022-09-27T04:46:20;27.50;90.60
50907;DHT22;36882;27.680;85.304;2022-09-27T04:48:51;27.50;91.60
50907;DHT22;36882;27.680;85.304;2022-09-27T04:51:21;27.50;91.50
50907;DHT22;36882;27.680;85.304;2022-09-27T04:53:51;27.50;92.10
50907;DHT22;36882;27.680;85.304;2022-09-27T04:56:22;27.50;92.00
50907;DHT22;36882;27.680;85.304;2022-09-27T04:58:52;27.50;91.80
50907;DHT22;36882;27.680;85.304;2022-09-27T05:01:23;27.40;91.60
50907;DHT22;36882;27.680;85.304;2022-09-27T05:03:53;27.40;92.00
50907;DHT22;36882;27.680;85.304;2022-09-27T05:06:23;27.40;92.10
50907;DHT22;36882;27.680;85.304;2022-09-27T05:08:54;27.50;91.70
50907;DHT22;36882;27.680;85.304;2022-09-27T05:11:25;27.70;91.90
50907;DHT22;36882;27.680;85.304;2022-09-27T05:13:55;27.80;91.60
50907;DHT22;36882;27.680;85.304;2022-09-27T05:16:25;27.90;91.20
50907;DHT22;36882;27.680;85.304;2022-09-27T05:19:00;28.10;91.70
50907;DHT22;36882;27.680;85.304;2022-09-27T05:21:30;28.20;91.20
50907;DHT22;36882;27.680;85.304;2022-09-27T05:24:01;28.20;90.90
50907;DHT22;36882;27.680;85.304;2022-09-27T05:26:31;28.20;90.90
50907;DHT22;36882;27.680;85.304;2022-09-27T05:29:06;28.20;90.90
50907;DHT22;36882;27.680;85.304;2022-09-27T05:33:08;28.20;91.50
50907;DHT22;36882;27.680;85.304;2022-09-27T05:35:38;28.00;92.00
50907;DHT22;36882;27.680;85.304;2022-09-27T05:38:12;28.00;91.70
50907;DHT22;36882;27.680;85.304;2022-09-27T05:40:42;28.00;91.50
50907;DHT22;36882;27.680;85.304;2022-09-27T05:43:13;28.00;91.70
50907;DHT22;36882;27.680;85.304;2022-09-27T05:45:44;28.10;90.90
50907;DHT22;36882;27.680;85.304;2022-09-27T05:48:14;28.10;90.40
50907;DHT22;36882;27.680;85.304;2022-09-27T05:50:44;28.20;90.80
50907;DHT22;36882;27.680;85.304;2022-09-27T05:53:15;28.40;91.50
50907;DHT22;36882;27.680;85.304;2022-09-27T05:55:44;28.60;90.50
50907;DHT22;36882;27.680;85.304;2022-09-27T05:58:15;28.70;90.00
50907;DHT22;36882;27.680;85.304;2022-09-27T06:00:45;28.90;90.80
50907;DHT22;36882;27.680;85.304;2022-09-27T06:03:19;29.00;90.30
50907;DHT22;36882;27.680;85.304;2022-09-27T06:05:49;29.00;90.30
50907;DHT22;36882;27.680;85.304;2022-09-27T06:08:19;29.10;89.80
50907;DHT22;36882;27.680;85.304;2022-09-27T06:10:49;29.10;90.20
50907;DHT22;36882;27.680;85.304;2022-09-27T06:13:19;29.10;90.40
50907;DHT22;36882;27.680;85.304;2022-09-27T06:15:49;29.20;89.90
50907;DHT22;36882;27.680;85.304;2022-09-27T06:18:21;29.30;90.00
50907;DHT22;36882;27.680;85.304;2022-09-27T06:20:51;29.30;89.30
50907;DHT22;36882;27.680;85.304;2022-09-27T06:23:22;29.40;89.10
50907;DHT22;36882;27.680;85.304;2022-09-27T06:25:53;29.40;87.40
50907;DHT22;36882;27.680;85.304;2022-09-27T06:28:27;29.50;86.90
50907;DHT22;36882;27.680;85.304;2022-09-27T06:30:58;29.50;86.60
50907;DHT22;36882;27.680;85.304;2022-09-27T06:33:29;29.60;88.00
50907;DHT22;36882;27.680;85.304;2022-09-27T06:36:04;29.60;88.10
50907;DHT22;36882;27.680;85.304;2022-09-27T06:38:35;29.50;86.90
50907;DHT22;36882;27.680;85.304;2022-09-27T06:41:05;29.40;87.00
50907;DHT22;36882;27.680;85.304;2022-09-27T06:43:36;29.20;88.70
50907;DHT22;36882;27.680;85.304;2022-09-27T06:46:07;29.00;89.00
50907;DHT22;36882;27.680;85.304;2022-09-27T06:48:37;29.30;89.80
50907;DHT22;36882;27.680;85.304;2022-09-27T06:51:07;29.30;88.60
50907;DHT22;36882;27.680;85.304;2022-09-27T06:53:37;29.20;89.10
50907;DHT22;36882;27.680;85.304;2022-09-27T06:56:07;29.10;90.30
50907;DHT22;36882;27.680;85.304;2022-09-27T06:58:38;29.00;90.80
50907;DHT22;36882;27.680;85.304;2022-09-27T07:01:28;28.80;90.50
50907;DHT22;36882;27.680;85.304;2022-09-27T07:03:58;28.80;90.40
50907;DHT22;36882;27.680;85.304;2022-09-27T07:06:28;28.80;90.70
50907;DHT22;36882;27.680;85.304;2022-09-27T07:08:59;28.90;90.10
50907;DHT22;36882;27.680;85.304;2022-09-27T07:11:29;28.90;89.70
50907;DHT22;36882;27.680;85.304;2022-09-27T07:13:59;29.00;89.30
50907;DHT22;36882;27.680;85.304;2022-09-27T07:16:30;29.10;90.50
50907;DHT22;36882;27.680;85.304;2022-09-27T07:19:03;29.20;90.20
50907;DHT22;36882;27.680;85.304;2022-09-27T07:21:36;29.30;89.70
50907;DHT22;36882;27.680;85.304;2022-09-27T07:24:06;29.40;87.70
50907;DHT22;36882;27.680;85.304;2022-09-27T07:26:36;29.60;89.00
50907;DHT22;36882;27.680;85.304;2022-09-27T07:29:05;29.60;88.80
50907;DHT22;36882;27.680;85.304;2022-09-27T07:31:36;29.70;87.20
50907;DHT22;36882;27.680;85.304;2022-09-27T07:34:06;29.60;88.30
50907;DHT22;36882;27.680;85.304;2022-09-27T07:36:37;29.60;89.20
50907;DHT22;36882;27.680;85.304;2022-09-27T07:39:08;29.60;87.70
50907;DHT22;36882;27.680;85.304;2022-09-27T07:41:38;29.80;87.30
50907;DHT22;36882;27.680;85.304;2022-09-27T07:44:08;29.80;88.20
50907;DHT22;36882;27.680;85.304;2022-09-27T07:46:38;29.80;88.20
50907;DHT22;36882;27.680;85.304;2022-09-27T07:49:09;29.80;87.50
50907;DHT22;36882;27.680;85.304;2022-09-27T07:51:38;29.80;88.50
50907;DHT22;36882;27.680;85.304;2022-09-27T07:54:09;29.80;88.10
50907;DHT22;36882;27.680;85.304;2022-09-27T07:56:39;29.90;88.50
50907;DHT22;36882;27.680;85.304;2022-09-27T07:59:09;29.90;88.50
50907;DHT22;36882;27.680;85.304;2022-09-27T08:01:39;29.80;88.00
50907;DHT22;36882;27.680;85.304;2022-09-27T08:04:09;29.90;87.30
50907;DHT22;36882;27.680;85.304;2022-09-27T08:06:39;29.80;87.00
50907;DHT22;36882;27.680;85.304;2022-09-27T08:09:10;29.70;87.40
50907;DHT22;36882;27.680;85.304;2022-09-27T08:11:41;29.70;87.00
50907;DHT22;36882;27.680;85.304;2022-09-27T08:14:13;29.70;89.30
50907;DHT22;36882;27.680;85.304;2022-09-27T08:16:43;29.70;89.00
50907;DHT22;36882;27.680;85.304;2022-09-27T08:19:13;29.90;87.90
50907;DHT22;36882;27.680;85.304;2022-09-27T08:21:44;29.70;86.10
50907;DHT22;36882;27.680;85.304;2022-09-27T08:24:16;29.70;87.50
50907;DHT22;36882;27.680;85.304;2022-09-27T08:26:47;29.70;88.60
50907;DHT22;36882;27.680;85.304;2022-09-27T08:29:17;29.70;87.80
50907;DHT22;36882;27.680;85.304;2022-09-27T08:31:50;29.70;88.00
50907;DHT22;36882;27.680;85.304;2022-09-27T08:34:22;29.80;88.20
50907;DHT22;36882;27.680;85.304;2022-09-27T08:36:53;29.80;88.90
50907;DHT22;36882;27.680;85.304;2022-09-27T08:39:24;29.80;89.00
50907;DHT22;36882;27.680;85.304;2022-09-27T08:42:06;29.80;89.30
50907;DHT22;36882;27.680;85.304;2022-09-27T08:47:46;29.90;89.00
50907;DHT22;36882;27.680;85.304;2022-09-27T08:50:29;29.90;88.10
50907;DHT22;36882;27.680;85.304;2022-09-27T08:53:30;29.90;87.50
50907;DHT22;36882;27.680;85.304;2022-09-27T08:56:03;29.70;88.80
50907;DHT22;36882;27.680;85.304;2022-09-27T08:58:40;29.60;89.70
50907;DHT22;36882;27.680;85.304;2022-09-27T09:01:15;29.50;89.30
50907;DHT22;36882;27.680;85.304;2022-09-27T09:03:52;29.30;89.30
50907;DHT22;36882;27.680;85.304;2022-09-27T09:06:32;29.20;89.90
50907;DHT22;36882;27.680;85.304;2022-09-27T09:09:31;29.00;90.20
50907;DHT22;36882;27.680;85.304;2022-09-27T09:12:21;28.90;90.40
50907;DHT22;36882;27.680;85.304;2022-09-27T09:15:32;28.90;90.70
50907;DHT22;36882;27.680;85.304;2022-09-27T09:24:42;28.30;90.80
50907;DHT22;36882;27.680;85.304;2022-09-27T09:27:25;28.10;91.40
50907;DHT22;36882;27.680;85.304;2022-09-27T09:30:21;28.20;91.90
50907;DHT22;36882;27.680;85.304;2022-09-27T09:33:29;28.30;91.80
50907;DHT22;36882;27.680;85.304;2022-09-27T09:36:14;28.30;91.90
50907;DHT22;36882;27.680;85.304;2022-09-27T09:38:57;28.30;92.20
50907;DHT22;36882;27.680;85.304;2022-09-27T09:41:33;28.20;92.20
50907;DHT22;36882;27.680;85.304;2022-09-27T09:44:26;28.20;92.30
50907;DHT22;36882;27.680;85.304;2022-09-27T09:47:01;28.30;92.20
50907;DHT22;36882;27.680;85.304;2022-09-27T09:49:40;28.40;92.30
50907;DHT22;36882;27.680;85.304;2022-09-27T09:52:17;28.60;92.50
50907;DHT22;36882;27.680;85.304;2022-09-27T09:54:59;28.70;92.10
50907;DHT22;36882;27.680;85.304;2022-09-27T09:57:37;28.80;91.90
50907;DHT22;36882;27.680;85.304;2022-09-27T10:00:15;28.80;91.70
50907;DHT22;36882;27.680;85.304;2022-09-27T10:02:48;28.90;91.60
50907;DHT22;36882;27.680;85.304;2022-09-27T10:05:22;28.90;91.70
50907;DHT22;36882;27.680;85.304;2022-09-27T10:07:59;28.80;91.90
50907;DHT22;36882;27.680;85.304;2022-09-27T10:10:31;28.90;92.50
50907;DHT22;36882;27.680;85.304;2022-09-27T10:13:03;28.80;92.60
50907;DHT22;36882;27.680;85.304;2022-09-27T10:15:33;28.70;91.60
50907;DHT22;36882;27.680;85.304;2022-09-27T10:18:07;28.60;92.10
50907;DHT22;36882;27.680;85.304;2022-09-27T10:20:47;28.50;92.10
50907;DHT22;36882;27.680;85.304;2022-09-27T10:23:21;28.50;92.20
50907;DHT22;36882;27.680;85.304;2022-09-27T10:25:55;28.50;92.30
50907;DHT22;36882;27.680;85.304;2022-09-27T10:28:39;28.50;91.90
50907;DHT22;36882;27.680;85.304;2022-09-27T10:31:15;28.20;91.80
50907;DHT22;36882;27.680;85.304;2022-09-27T10:34:01;28.20;91.80
50907;DHT22;36882;27.680;85.304;2022-09-27T10:36:35;28.10;92.30
50907;DHT22;36882;27.680;85.304;2022-09-27T10:39:21;28.10;92.70
50907;DHT22;36882;27.680;85.304;2022-09-27T10:41:52;28.30;92.80
50907;DHT22;36882;27.680;85.304;2022-09-27T10:44:29;28.30;92.60
50907;DHT22;36882;27.680;85.304;2022-09-27T10:47:10;28.40;92.60
50907;DHT22;36882;27.680;85.304;2022-09-27T10:49:43;28.40;92.40
50907;DHT22;36882;27.680;85.304;2022-09-27T10:52:22;28.40;92.80
50907;DHT22;36882;27.680;85.304;2022-09-27T10:54:59;28.30;92.90
50907;DHT22;36882;27.680;85.304;2022-09-27T10:57:31;28.30;93.10
50907;DHT22;36882;27.680;85.304;2022-09-27T11:00:18;28.30;93.30
50907;DHT22;36882;27.680;85.304;2022-09-27T11:02:55;28.20;93.50
50907;DHT22;36882;27.680;85.304;2022-09-27T11:05:35;28.20;93.40
50907;DHT22;36882;27.680;85.304;2022-09-27T11:08:43;28.10;93.10
50907;DHT22;36882;27.680;85.304;2022-09-27T11:11:17;28.00;93.50
50907;DHT22;36882;27.680;85.304;2022-09-27T11:17:17;27.90;93.60
50907;DHT22;36882;27.680;85.304;2022-09-27T11:20:02;27.90;93.80
50907;DHT22;36882;27.680;85.304;2022-09-27T11:31:48;27.90;92.90
50907;DHT22;36882;27.680;85.304;2022-09-27T11:34:48;27.80;93.00
50907;DHT22;36882;27.680;85.304;2022-09-27T11:52:41;27.30;94.10
50907;DHT22;36882;27.680;85.304;2022-09-27T11:55:34;27.10;94.30
50907;DHT22;36882;27.680;85.304;2022-09-27T11:58:30;27.00;94.50
50907;DHT22;36882;27.680;85.304;2022-09-27T12:01:34;27.00;94.70
50907;DHT22;36882;27.680;85.304;2022-09-27T12:04:29;26.90;95.00
50907;DHT22;36882;27.680;85.304;2022-09-27T12:07:33;26.90;95.20
50907;DHT22;36882;27.680;85.304;2022-09-27T12:10:13;26.80;95.30
50907;DHT22;36882;27.680;85.304;2022-09-27T12:12:51;26.70;95.50
50907;DHT22;36882;27.680;85.304;2022-09-27T12:15:27;26.60;95.40
50907;DHT22;36882;27.680;85.304;2022-09-27T12:18:37;26.40;95.80
50907;DHT22;36882;27.680;85.304;2022-09-27T12:21:01;26.30;95.80
50907;DHT22;36882;27.680;85.304;2022-09-27T12:23:43;26.40;95.90
50907;DHT22;36882;27.680;85.304;2022-09-27T12:26:28;26.30;95.90
50907;DHT22;36882;27.680;85.304;2022-09-27T12:32:01;26.30;96.00
50907;DHT22;36882;27.680;85.304;2022-09-27T12:34:59;26.30;95.80
50907;DHT22;36882;27.680;85.304;2022-09-27T12:37:37;26.20;95.60
50907;DHT22;36882;27.680;85.304;2022-09-27T12:40:30;26.20;95.50
50907;DHT22;36882;27.680;85.304;2022-09-27T12:43:12;26.10;95.90
50907;DHT22;36882;27.680;85.304;2022-09-27T12:46:04;26.10;96.10
50907;DHT22;36882;27.680;85.304;2022-09-27T12:55:02;26.00;95.80
50907;DHT22;36882;27.680;85.304;2022-09-27T12:58:02;26.00;95.90
50907;DHT22;36882;27.680;85.304;2022-09-27T13:00:52;25.90;96.10
50907;DHT22;36882;27.680;85.304;2022-09-27T13:12:39;26.00;95.90
50907;DHT22;36882;27.680;85.304;2022-09-27T13:15:26;26.00;95.70
50907;DHT22;36882;27.680;85.304;2022-09-27T13:17:59;25.90;95.40
50907;DHT22;36882;27.680;85.304;2022-09-27T13:20:40;25.90;95.60
50907;DHT22;36882;27.680;85.304;2022-09-27T13:23:49;25.80;95.70
50907;DHT22;36882;27.680;85.304;2022-09-27T13:26:53;25.80;95.50
50907;DHT22;36882;27.680;85.304;2022-09-27T13:29:25;25.60;95.80
50907;DHT22;36882;27.680;85.304;2022-09-27T13:32:13;25.50;96.00
50907;DHT22;36882;27.680;85.304;2022-09-27T13:34:54;25.60;96.20
50907;DHT22;36882;27.680;85.304;2022-09-27T13:40:25;25.50;96.20
50907;DHT22;36882;27.680;85.304;2022-09-27T13:43:20;25.60;96.40
50907;DHT22;36882;27.680;85.304;2022-09-27T13:45:59;25.60;96.40
50907;DHT22;36882;27.680;85.304;2022-09-27T13:48:42;25.70;96.20
50907;DHT22;36882;27.680;85.304;2022-09-27T13:51:39;25.70;96.50
50907;DHT22;36882;27.680;85.304;2022-09-27T13:54:38;25.60;96.30
50907;DHT22;36882;27.680;85.304;2022-09-27T14:00:22;25.60;96.50
50907;DHT22;36882;27.680;85.304;2022-09-27T14:03:03;25.70;96.50
50907;DHT22;36882;27.680;85.304;2022-09-27T14:05:40;25.60;96.60
50907;DHT22;36882;27.680;85.304;2022-09-27T14:08:24;25.50;96.80
50907;DHT22;36882;27.680;85.304;2022-09-27T14:10:56;25.50;96.90
50907;DHT22;36882;27.680;85.304;2022-09-27T14:13:30;25.40;96.90
50907;DHT22;36882;27.680;85.304;2022-09-27T14:16:04;25.50;96.90
50907;DHT22;36882;27.680;85.304;2022-09-27T14:18:35;25.40;96.70
50907;DHT22;36882;27.680;85.304;2022-09-27T14:21:25;25.40;96.90
50907;DHT22;36882;27.680;85.304;2022-09-27T14:24:29;25.30;97.00
50907;DHT22;36882;27.680;85.304;2022-09-27T14:27:28;25.30;97.00
50907;DHT22;36882;27.680;85.304;2022-09-27T14:30:05;25.30;97.10
50907;DHT22;36882;27.680;85.304;2022-09-27T14:32:51;25.20;97.00
50907;DHT22;36882;27.680;85.304;2022-09-27T14:35:27;25.10;97.00
50907;DHT22;36882;27.680;85.304;2022-09-27T14:38:14;25.10;97.20
50907;DHT22;36882;27.680;85.304;2022-09-27T14:41:06;25.10;97.30
50907;DHT22;36882;27.680;85.304;2022-09-27T14:43:42;25.00;97.40
50907;DHT22;36882;27.680;85.304;2022-09-27T14:46:27;24.90;97.50
50907;DHT22;36882;27.680;85.304;2022-09-27T14:49:08;24.90;97.50
50907;DHT22;36882;27.680;85.304;2022-09-27T14:51:51;24.80;97.50
50907;DHT22;36882;27.680;85.304;2022-09-27T14:54:29;24.80;97.60
50907;DHT22;36882;27.680;85.304;2022-09-27T14:57:01;24.80;97.60
50907;DHT22;36882;27.680;85.304;2022-09-27T14:59:34;24.80;97.50
50907;DHT22;36882;27.680;85.304;2022-09-27T15:02:16;24.80;97.50
50907;DHT22;36882;27.680;85.304;2022-09-27T15:04:49;24.80;97.70
50907;DHT22;36882;27.680;85.304;2022-09-27T15:07:21;24.80;97.50
50907;DHT22;36882;27.680;85.304;2022-09-27T15:09:52;24.80;97.80
50907;DHT22;36882;27.680;85.304;2022-09-27T15:12:25;24.80;97.40
50907;DHT22;36882;27.680;85.304;2022-09-27T15:14:55;24.80;97.40
50907;DHT22;36882;27.680;85.304;2022-09-27T15:17:27;24.80;97.50
50907;DHT22;36882;27.680;85.304;2022-09-27T15:20:02;24.80;97.50
50907;DHT22;36882;27.680;85.304;2022-09-27T15:22:36;24.80;97.50
50907;DHT22;36882;27.680;85.304;2022-09-27T15:25:21;24.80;97.50
50907;DHT22;36882;27.680;85.304;2022-09-27T15:27:54;24.80;97.40
50907;DHT22;36882;27.680;85.304;2022-09-27T15:30:35;24.70;97.70
50907;DHT22;36882;27.680;85.304;2022-09-27T15:33:18;24.70;97.80
50907;DHT22;36882;27.680;85.304;2022-09-27T15:35:55;24.60;97.90
50907;DHT22;36882;27.680;85.304;2022-09-27T15:38:45;24.60;97.90
50907;DHT22;36882;27.680;85.304;2022-09-27T15:41:17;24.50;98.00
50907;DHT22;36882;27.680;85.304;2022-09-27T15:43:50;24.50;98.00
50907;DHT22;36882;27.680;85.304;2022-09-27T15:46:34;24.50;97.80
50907;DHT22;36882;27.680;85.304;2022-09-27T15:49:19;24.50;97.80
50907;DHT22;36882;27.680;85.304;2022-09-27T15:51:55;24.50;97.80
50907;DHT22;36882;27.680;85.304;2022-09-27T15:54:28;24.40;97.70
50907;DHT22;36882;27.680;85.304;2022-09-27T15:57:03;24.40;97.70
50907;DHT22;36882;27.680;85.304;2022-09-27T15:59:35;24.40;97.80
50907;DHT22;36882;27.680;85.304;2022-09-27T16:02:13;24.40;97.80
50907;DHT22;36882;27.680;85.304;2022-09-27T16:04:44;24.40;97.90
50907;DHT22;36882;27.680;85.304;2022-09-27T16:07:15;24.30;97.80
50907;DHT22;36882;27.680;85.304;2022-09-27T16:09:47;24.30;97.80
50907;DHT22;36882;27.680;85.304;2022-09-27T16:12:21;24.30;97.90
50907;DHT22;36882;27.680;85.304;2022-09-27T16:14:52;24.40;97.90
50907;DHT22;36882;27.680;85.304;2022-09-27T16:17:23;24.40;97.70
50907;DHT22;36882;27.680;85.304;2022-09-27T16:19:53;24.30;97.80
50907;DHT22;36882;27.680;85.304;2022-09-27T16:22:24;24.40;97.80
50907;DHT22;36882;27.680;85.304;2022-09-27T16:24:54;24.30;97.90
50907;DHT22;36882;27.680;85.304;2022-09-27T16:27:25;24.40;98.00
50907;DHT22;36882;27.680;85.304;2022-09-27T16:29:56;24.30;97.80
50907;DHT22;36882;27.680;85.304;2022-09-27T16:32:27;24.20;97.80
50907;DHT22;36882;27.680;85.304;2022-09-27T16:34:58;24.20;98.10
50907;DHT22;36882;27.680;85.304;2022-09-27T16:37:29;24.20;98.10
50907;DHT22;36882;27.680;85.304;2022-09-27T16:39:59;24.20;98.00
50907;DHT22;36882;27.680;85.304;2022-09-27T16:42:30;24.20;97.90
50907;DHT22;36882;27.680;85.304;2022-09-27T16:45:01;24.20;97.90
50907;DHT22;36882;27.680;85.304;2022-09-27T16:47:38;24.10;97.80
50907;DHT22;36882;27.680;85.304;2022-09-27T16:50:11;24.00;97.70
50907;DHT22;36882;27.680;85.304;2022-09-27T16:53:00;24.00;97.60
50907;DHT22;36882;27.680;85.304;2022-09-27T16:55:30;23.90;97.70
50907;DHT22;36882;27.680;85.304;2022-09-27T16:58:01;23.90;97.80
50907;DHT22;36882;27.680;85.304;2022-09-27T17:00:34;23.90;97.90
50907;DHT22;36882;27.680;85.304;2022-09-27T17:03:04;23.90;97.90
50907;DHT22;36882;27.680;85.304;2022-09-27T17:05:37;23.90;97.90
50907;DHT22;36882;27.680;85.304;2022-09-27T17:08:08;23.90;97.90
50907;DHT22;36882;27.680;85.304;2022-09-27T17:10:43;23.90;98.00
50907;DHT22;36882;27.680;85.304;2022-09-27T17:13:14;23.80;98.20
50907;DHT22;36882;27.680;85.304;2022-09-27T17:15:44;23.80;98.30
50907;DHT22;36882;27.680;85.304;2022-09-27T17:18:15;23.80;98.30
50907;DHT22;36882;27.680;85.304;2022-09-27T17:20:46;23.80;98.30
50907;DHT22;36882;27.680;85.304;2022-09-27T17:23:17;23.70;98.30
50907;DHT22;36882;27.680;85.304;2022-09-27T17:25:48;23.70;98.30
50907;DHT22;36882;27.680;85.304;2022-09-27T17:28:19;23.80;98.30
50907;DHT22;36882;27.680;85.304;2022-09-27T17:30:49;23.80;98.30
50907;DHT22;36882;27.680;85.304;2022-09-27T17:33:22;23.80;98.10